Time;durP1;ratioP1;P1;durP2;ratioP2;P2;SDS_P1;SDS_P2;PMS_P1;PMS_P2;Temp;Humidity;BMP_temperature;BMP_pressure;BME280_temperature;BME280_humidity;BME280_pressure;Samples;Min_cycle;Max_cycle;Signal;HPM_P1;HPM_P2
2022/12/15 00:40:03;;;;;;;26.92;13.02;;;-3.70;99.90;;;;;;5066478;28;20053;-58
2022/12/15 00:42:29;;;;;;;26.95;12.73;;;-3.70;99.90;;;;;;5065958;28;20096;-59
2022/12/15 00:44:56;;;;;;;28.20;13.77;;;-3.70;99.90;;;;;;5069067;28;20067;-60
2022/12/15 00:47:21;;;;;;;27.27;12.98;;;-3.80;99.90;;;;;;5070990;28;20102;-58
2022/12/15 01:20:16;;;;;;;31.83;13.50;;;-3.60;99.90;;;;;;5068104;28;20040;-60
2022/12/15 01:22:43;;;;;;;28.52;13.75;;;-3.60;99.90;;;;;;5061418;28;20075;-60
2022/12/15 01:25:09;;;;;;;28.85;13.30;;;-3.70;99.90;;;;;;5070324;28;20081;-61
2022/12/15 01:27:35;;;;;;;30.20;14.43;;;-3.70;99.90;;;;;;5067224;28;20028;-61
2022/12/15 01:30:01;;;;;;;27.10;13.30;;;-3.70;99.90;;;;;;5066453;28;20052;-58
2022/12/15 01:32:27;;;;;;;27.60;13.40;;;-3.70;99.90;;;;;;5061360;28;20052;-60
2022/12/15 01:34:53;;;;;;;25.10;12.55;;;-3.60;99.90;;;;;;5066498;28;20058;-60
2022/12/15 01:37:19;;;;;;;29.15;12.68;;;-3.70;99.90;;;;;;5063029;28;20048;-60
2022/12/15 01:42:28;;;;;;;25.08;12.95;;;-3.70;99.90;;;;;;5063381;28;20062;-58
2022/12/15 01:45:23;;;;;;;24.63;12.65;;;-3.70;99.90;;;;;;5070792;28;20384;-60
2022/12/15 01:47:54;;;;;;;26.90;13.45;;;-3.70;99.90;;;;;;5070776;28;20159;-60
2022/12/15 01:50:22;;;;;;;26.67;12.70;;;-3.70;99.90;;;;;;5066145;28;20044;-61
2022/12/15 01:52:49;;;;;;;24.55;13.32;;;-3.80;99.90;;;;;;5070406;28;20044;-59
2022/12/15 01:55:17;;;;;;;24.02;12.90;;;-3.80;99.90;;;;;;5069972;28;20502;-60
2022/12/15 01:57:47;;;;;;;26.15;13.23;;;-3.80;99.90;;;;;;5060894;28;20398;-59
2022/12/15 02:00:13;;;;;;;28.85;14.02;;;-3.80;99.90;;;;;;5067843;28;20047;-60
2022/12/15 02:02:40;;;;;;;25.65;13.25;;;-3.80;99.90;;;;;;5070175;28;20047;-59
2022/12/15 02:05:07;;;;;;;28.40;13.18;;;-3.80;99.90;;;;;;5068988;28;20029;-58
2022/12/15 02:07:33;;;;;;;28.05;13.60;;;-3.80;99.90;;;;;;5070281;28;20402;-60
2022/12/15 02:10:01;;;;;;;29.08;14.07;;;-3.80;99.90;;;;;;5070136;28;20044;-60
2022/12/15 02:12:29;;;;;;;27.27;13.55;;;-3.80;99.90;;;;;;5069955;28;20033;-60
2022/12/15 02:15:13;;;;;;;26.30;13.07;;;-3.80;99.90;;;;;;5066138;28;20457;-60
2022/12/15 02:18:00;;;;;;;27.00;13.88;;;-3.80;99.90;;;;;;5070028;28;20495;-61
2022/12/15 02:20:54;;;;;;;31.60;14.60;;;-3.80;99.90;;;;;;5061946;28;20171;-60
2022/12/15 02:23:37;;;;;;;25.92;12.63;;;-3.80;99.90;;;;;;5062774;28;20043;-60
2022/12/15 02:26:18;;;;;;;27.55;13.15;;;-3.80;99.90;;;;;;5067877;28;20064;-61
2022/12/15 02:28:50;;;;;;;27.17;13.52;;;-3.70;99.90;;;;;;5068168;28;20067;-60
2022/12/15 02:31:54;;;;;;;27.33;13.37;;;-3.70;99.90;;;;;;5062176;28;20051;-60
2022/12/15 02:34:38;;;;;;;27.40;13.38;;;-3.70;99.90;;;;;;5051734;28;20044;-60
2022/12/15 02:37:06;;;;;;;27.02;13.20;;;-3.70;99.90;;;;;;5069358;28;20044;-60
2022/12/15 02:39:32;;;;;;;24.10;13.10;;;-3.70;99.90;;;;;;5068682;28;20482;-60
2022/12/15 02:41:58;;;;;;;25.77;12.60;;;-3.70;99.90;;;;;;5066115;28;20035;-60
2022/12/15 02:44:29;;;;;;;25.88;11.88;;;-3.70;99.90;;;;;;5065497;28;20033;-61
2022/12/15 02:47:20;;;;;;;28.45;13.57;;;-3.70;99.90;;;;;;5061207;28;20044;-60
2022/12/15 02:50:18;;;;;;;26.95;13.13;;;-3.70;99.90;;;;;;5067680;28;20127;-60
2022/12/15 02:53:14;;;;;;;26.10;12.52;;;-3.70;99.90;;;;;;5062695;28;20051;-60
2022/12/15 02:55:59;;;;;;;24.60;12.45;;;-3.70;99.90;;;;;;5058411;28;20052;-61
2022/12/15 02:58:33;;;;;;;24.30;12.90;;;-3.70;99.90;;;;;;5061395;28;20040;-60
2022/12/15 03:01:10;;;;;;;25.33;12.70;;;-3.70;99.90;;;;;;5069918;28;20397;-60
2022/12/15 03:03:37;;;;;;;26.70;12.60;;;-3.70;99.90;;;;;;5069379;28;20116;-59
2022/12/15 03:06:03;;;;;;;26.55;13.00;;;-3.70;99.90;;;;;;5068393;28;20036;-61
2022/12/15 03:08:29;;;;;;;25.25;12.52;;;-3.70;99.90;;;;;;5069846;28;20040;-60
2022/12/15 03:10:56;;;;;;;24.30;13.50;;;-3.70;99.90;;;;;;5066866;28;20028;-60
2022/12/15 03:13:22;;;;;;;23.08;12.23;;;-3.70;99.90;;;;;;5069909;28;20041;-60
2022/12/15 03:15:48;;;;;;;23.50;12.10;;;-3.70;99.90;;;;;;5062249;28;20124;-60
2022/12/15 03:18:14;;;;;;;25.33;13.20;;;-3.70;99.90;;;;;;5067470;28;20111;-61
2022/12/15 03:20:40;;;;;;;29.13;12.57;;;-3.60;99.90;;;;;;5073251;28;20422;-61
2022/12/15 03:23:06;;;;;;;22.85;12.00;;;-3.60;99.90;;;;;;5071543;28;20044;-61
2022/12/15 03:25:31;;;;;;;23.95;12.05;;;-3.60;99.90;;;;;;5070067;28;20127;-61
2022/12/15 03:27:57;;;;;;;21.92;11.30;;;-3.60;99.90;;;;;;5072623;28;20079;-60
2022/12/15 03:30:23;;;;;;;23.77;12.32;;;-3.60;99.90;;;;;;5073137;28;20119;-61
2022/12/15 03:32:49;;;;;;;26.33;11.75;;;-3.70;99.90;;;;;;5065115;28;20522;-61
2022/12/15 03:35:14;;;;;;;25.27;11.43;;;-3.70;99.90;;;;;;5066938;28;20040;-61
2022/12/15 03:37:41;;;;;;;22.63;11.45;;;-3.70;99.90;;;;;;5068798;28;20056;-60
2022/12/15 03:40:08;;;;;;;22.92;12.07;;;-3.70;99.90;;;;;;5071472;28;20049;-61
2022/12/15 03:42:52;;;;;;;23.55;12.30;;;-3.60;99.90;;;;;;5065226;28;20044;-60
2022/12/15 03:45:20;;;;;;;23.13;10.85;;;-3.60;99.90;;;;;;5065463;28;20036;-60
2022/12/15 03:47:46;;;;;;;26.20;12.23;;;-3.70;99.90;;;;;;5069112;28;20040;-60
2022/12/15 03:50:15;;;;;;;22.05;11.30;;;-3.60;99.90;;;;;;5068372;28;20048;-61
2022/12/15 03:52:41;;;;;;;23.60;11.45;;;-3.60;99.90;;;;;;5067911;28;20418;-61
2022/12/15 03:55:07;;;;;;;20.40;11.07;;;-3.60;99.90;;;;;;5069149;28;20208;-60
2022/12/15 03:57:33;;;;;;;22.92;10.98;;;-3.60;99.90;;;;;;5064375;28;20069;-60
2022/12/15 03:59:59;;;;;;;20.85;11.38;;;-3.60;99.90;;;;;;5070592;28;20482;-61
2022/12/15 04:02:24;;;;;;;20.75;11.38;;;-3.60;99.90;;;;;;5068913;28;20040;-61
2022/12/15 04:04:50;;;;;;;22.15;11.68;;;-3.60;99.90;;;;;;5072195;28;20516;-61
2022/12/15 04:07:16;;;;;;;25.95;11.25;;;-3.70;99.90;;;;;;5064199;28;20032;-60
2022/12/15 04:09:41;;;;;;;23.73;11.68;;;-3.60;99.90;;;;;;5063661;28;20036;-61
2022/12/15 04:12:10;;;;;;;24.38;10.77;;;-3.60;99.90;;;;;;5068488;28;20045;-60
2022/12/15 04:14:41;;;;;;;24.80;11.73;;;-3.60;99.90;;;;;;5070890;28;20036;-61
2022/12/15 04:17:08;;;;;;;22.23;11.05;;;-3.60;99.90;;;;;;5071559;28;20076;-58
2022/12/15 04:22:18;;;;;;;23.17;12.23;;;-3.60;99.90;;;;;;5053996;28;20037;-61
2022/12/15 05:33:14;;;;;;;23.73;10.40;;;-3.40;99.90;;;;;;5068145;28;20402;-61
2022/12/15 05:35:40;;;;;;;21.25;11.20;;;-3.40;99.90;;;;;;5067869;28;20036;-61
2022/12/15 05:38:05;;;;;;;19.10;10.60;;;-3.40;99.90;;;;;;5063500;28;20044;-60
2022/12/15 05:40:31;;;;;;;21.08;10.90;;;-3.40;99.90;;;;;;5069982;28;20045;-60
2022/12/15 05:42:58;;;;;;;19.23;10.98;;;-3.80;99.90;;;;;;5070563;28;20044;-60
2022/12/15 05:45:24;;;;;;;20.20;10.93;;;-3.50;99.90;;;;;;5063600;28;20744;-60
2022/12/15 05:47:51;;;;;;;24.50;11.60;;;-3.50;99.90;;;;;;5070449;28;20506;-61
2022/12/15 05:50:17;;;;;;;21.77;10.80;;;-3.50;99.90;;;;;;5069957;28;20044;-61
2022/12/15 05:52:42;;;;;;;20.98;11.40;;;-3.50;99.90;;;;;;5066408;28;20028;-61
2022/12/15 05:55:08;;;;;;;22.48;10.73;;;-3.50;99.90;;;;;;5063921;28;20111;-59
2022/12/15 05:57:34;;;;;;;22.38;11.13;;;-3.50;99.90;;;;;;5060735;28;20097;-59
2022/12/15 05:59:59;;;;;;;24.05;10.85;;;-3.50;99.90;;;;;;5064272;28;20047;-61
2022/12/15 06:02:27;;;;;;;20.25;10.95;;;-3.40;99.90;;;;;;5070357;28;20097;-59
2022/12/15 06:04:53;;;;;;;22.23;11.10;;;-3.50;99.90;;;;;;5068199;28;20037;-61
2022/12/15 06:07:18;;;;;;;20.02;10.90;;;-3.40;99.90;;;;;;5067352;28;20406;-60
2022/12/15 06:09:44;;;;;;;22.15;11.43;;;-3.40;99.90;;;;;;5070413;28;20097;-61
2022/12/15 06:12:10;;;;;;;22.80;11.18;;;-2.40;99.90;;;;;;5073580;28;20042;-61
2022/12/15 06:14:36;;;;;;;18.80;10.52;;;-3.40;99.90;;;;;;5065658;28;20077;-61
2022/12/15 06:17:02;;;;;;;20.25;10.80;;;-3.40;99.90;;;;;;5060774;28;20048;-60
2022/12/15 06:19:28;;;;;;;20.83;10.73;;;-3.50;99.90;;;;;;5052027;28;20036;-60
2022/12/15 06:21:53;;;;;;;21.20;10.60;;;-3.50;99.90;;;;;;5065614;28;20037;-61
2022/12/15 06:24:19;;;;;;;30.58;10.98;;;-3.50;99.90;;;;;;5069599;28;20033;-60
2022/12/15 06:26:45;;;;;;;20.88;10.90;;;-3.50;99.90;;;;;;5068089;28;20530;-61
2022/12/15 06:29:12;;;;;;;19.98;10.60;;;-3.50;99.90;;;;;;5064704;28;20044;-59
2022/12/15 06:31:39;;;;;;;22.15;10.15;;;-3.50;99.90;;;;;;5064017;28;20043;-60
2022/12/15 06:34:08;;;;;;;24.08;11.32;;;-3.50;99.90;;;;;;5067267;28;20580;-60
2022/12/15 06:36:33;;;;;;;21.15;10.32;;;-3.60;99.90;;;;;;5056966;28;20033;-60
2022/12/15 06:39:01;;;;;;;20.17;10.95;;;-3.50;99.90;;;;;;5068347;28;20066;-60
2022/12/15 06:41:29;;;;;;;21.80;10.55;;;-3.50;99.90;;;;;;5065245;28;20082;-60
2022/12/15 06:43:55;;;;;;;23.10;10.57;;;-3.50;99.90;;;;;;5048258;28;20399;-60
2022/12/15 06:46:21;;;;;;;20.58;10.18;;;-3.50;99.90;;;;;;5064022;28;20290;-60
2022/12/15 06:48:47;;;;;;;20.13;10.30;;;-3.50;99.90;;;;;;5068151;28;20110;-59
2022/12/15 06:51:14;;;;;;;18.25;9.90;;;-3.50;99.90;;;;;;5065012;28;20040;-61
2022/12/15 06:53:41;;;;;;;23.13;10.07;;;-3.50;99.90;;;;;;5060365;28;20094;-61
2022/12/15 06:56:15;;;;;;;23.85;11.43;;;-3.50;99.90;;;;;;5057127;28;20425;-61
2022/12/15 06:58:41;;;;;;;19.05;10.15;;;-3.50;99.90;;;;;;5062130;28;20040;-61
2022/12/15 07:01:07;;;;;;;21.63;10.68;;;-3.50;99.90;;;;;;5062443;28;20049;-61
2022/12/15 07:03:33;;;;;;;19.88;9.77;;;-3.50;99.90;;;;;;5073561;28;20483;-61
2022/12/15 07:06:05;;;;;;;23.77;10.20;;;-3.50;99.90;;;;;;5071193;28;20400;-61
2022/12/15 07:08:30;;;;;;;19.27;9.70;;;-3.40;99.90;;;;;;5059124;28;20124;-61
2022/12/15 07:10:56;;;;;;;17.20;9.25;;;-3.50;99.90;;;;;;5068749;28;20116;-60
2022/12/15 07:13:22;;;;;;;21.65;9.68;;;-3.40;99.90;;;;;;5062717;28;20029;-60
2022/12/15 07:15:48;;;;;;;18.02;10.00;;;-3.40;99.90;;;;;;5064373;28;20452;-60
2022/12/15 07:18:15;;;;;;;29.20;10.23;;;-3.40;99.90;;;;;;5061979;28;20434;-61
2022/12/15 07:20:41;;;;;;;20.02;9.80;;;-3.40;99.90;;;;;;5060739;28;20044;-62
2022/12/15 07:23:08;;;;;;;18.10;9.73;;;-3.40;99.90;;;;;;5062854;28;20502;-61
2022/12/15 07:25:38;;;;;;;18.23;9.40;;;-3.40;99.90;;;;;;5061035;28;20068;-61
2022/12/15 07:28:05;;;;;;;18.92;9.40;;;-3.40;99.90;;;;;;5062258;28;20064;-61
2022/12/15 07:30:31;;;;;;;20.90;9.82;;;-3.40;99.90;;;;;;5067678;28;20123;-61
2022/12/15 07:32:57;;;;;;;19.20;9.63;;;-3.40;99.90;;;;;;5061106;28;20136;-61
2022/12/15 07:35:23;;;;;;;16.92;9.45;;;-3.40;99.90;;;;;;5070050;28;20115;-61
2022/12/15 07:37:49;;;;;;;19.08;10.27;;;-3.40;99.90;;;;;;5072880;28;20112;-60
2022/12/15 07:40:15;;;;;;;20.10;9.90;;;-3.40;99.90;;;;;;5073081;28;20101;-60
2022/12/15 07:42:41;;;;;;;20.40;10.13;;;-3.40;99.90;;;;;;5072489;28;20407;-61
2022/12/15 07:45:07;;;;;;;24.33;10.50;;;-3.40;99.90;;;;;;5072682;28;20447;-62
2022/12/15 07:47:32;;;;;;;23.30;10.75;;;-3.40;99.90;;;;;;5071102;28;20039;-61
2022/12/15 07:49:58;;;;;;;22.02;10.75;;;-3.40;99.90;;;;;;5070178;28;20032;-61
2022/12/15 07:52:24;;;;;;;21.73;11.25;;;-3.30;99.90;;;;;;5072513;28;20087;-62
2022/12/15 07:54:50;;;;;;;20.15;10.43;;;-3.30;99.90;;;;;;5072216;28;20039;-61
2022/12/15 07:57:16;;;;;;;17.73;9.63;;;-3.30;99.90;;;;;;5072106;28;20578;-62
2022/12/15 07:59:42;;;;;;;18.00;10.18;;;-3.30;99.90;;;;;;5070256;28;20041;-61
2022/12/15 08:02:10;;;;;;;21.65;10.70;;;-3.20;99.90;;;;;;5072378;28;20174;-62
2022/12/15 08:04:36;;;;;;;21.02;10.48;;;-3.20;99.90;;;;;;5069950;28;20037;-61
2022/12/15 08:07:02;;;;;;;20.42;10.68;;;-3.20;99.90;;;;;;5059246;28;20075;-60
2022/12/15 08:09:27;;;;;;;18.90;10.02;;;-3.20;99.90;;;;;;5060111;28;20044;-62
2022/12/15 08:11:53;;;;;;;19.10;10.35;;;-3.20;99.90;;;;;;5069143;28;20040;-62
2022/12/15 08:14:18;;;;;;;18.58;10.43;;;-3.20;99.90;;;;;;5064628;28;20103;-62
2022/12/15 08:16:44;;;;;;;21.90;10.05;;;-3.10;99.90;;;;;;5069555;28;20041;-61
2022/12/15 08:19:12;;;;;;;20.73;10.38;;;-3.20;99.90;;;;;;5062844;28;20036;-62
2022/12/15 08:21:42;;;;;;;21.13;10.23;;;-3.20;99.90;;;;;;5072376;28;20401;-62
2022/12/15 08:24:09;;;;;;;20.30;10.43;;;-3.10;99.90;;;;;;5071421;28;20028;-60
2022/12/15 08:26:36;;;;;;;19.58;10.68;;;-3.10;99.90;;;;;;5071728;28;20491;-62
2022/12/15 08:29:04;;;;;;;25.58;11.27;;;-3.10;99.90;;;;;;5071674;28;20071;-60
2022/12/15 08:31:31;;;;;;;20.13;10.80;;;-3.10;99.90;;;;;;5072408;28;20048;-61
2022/12/15 08:33:58;;;;;;;20.38;10.88;;;-3.10;99.90;;;;;;5070736;28;20128;-61
2022/12/15 08:36:23;;;;;;;19.38;10.40;;;-3.10;99.90;;;;;;5065237;28;20040;-61
2022/12/15 08:38:49;;;;;;;20.60;10.95;;;-3.10;99.90;;;;;;5071535;28;20044;-59
2022/12/15 08:41:19;;;;;;;20.83;11.60;;;-3.10;99.90;;;;;;5071744;28;20272;-60
2022/12/15 08:43:46;;;;;;;22.83;12.10;;;-3.00;99.90;;;;;;5071813;28;20040;-62
2022/12/15 08:46:12;;;;;;;19.30;10.80;;;-3.00;99.90;;;;;;5071301;28;20078;-60
2022/12/15 08:48:38;;;;;;;20.25;11.00;;;-2.90;99.90;;;;;;5072004;28;20422;-62
2022/12/15 08:51:05;;;;;;;22.30;10.75;;;-3.00;99.90;;;;;;5065110;28;20045;-61
2022/12/15 08:53:31;;;;;;;21.98;10.98;;;-2.90;99.90;;;;;;5058023;28;20040;-61
2022/12/15 08:56:05;;;;;;;18.42;10.25;;;-2.90;99.90;;;;;;5060516;28;20056;-61
2022/12/15 08:58:31;;;;;;;20.92;11.05;;;-2.90;99.90;;;;;;5069817;28;20414;-61
2022/12/15 09:01:01;;;;;;;22.10;10.85;;;-2.90;99.90;;;;;;5055658;28;20033;-61
2022/12/15 09:03:27;;;;;;;19.42;10.32;;;-2.90;99.90;;;;;;5067224;28;20038;-61
2022/12/15 09:05:52;;;;;;;19.45;10.32;;;-2.90;99.90;;;;;;5061688;28;20112;-61
2022/12/15 09:08:18;;;;;;;20.42;10.35;;;-2.80;99.90;;;;;;5055417;28;20125;-62
2022/12/15 09:10:43;;;;;;;25.02;11.35;;;-2.70;99.90;;;;;;5054216;28;20037;-61
2022/12/15 09:13:09;;;;;;;30.70;12.82;;;-2.70;99.90;;;;;;5055155;28;20086;-61
2022/12/15 09:15:34;;;;;;;22.98;11.45;;;-2.60;99.90;;;;;;5056363;28;20120;-62
2022/12/15 09:18:00;;;;;;;22.60;12.00;;;-2.50;99.90;;;;;;5058154;28;20505;-62
2022/12/15 09:20:26;;;;;;;21.58;11.38;;;-2.50;99.90;;;;;;5058281;28;20068;-61
2022/12/15 09:22:51;;;;;;;21.13;11.15;;;-2.40;99.90;;;;;;5059073;28;20029;-62
2022/12/15 09:25:17;;;;;;;22.70;11.95;;;-2.30;99.90;;;;;;5052763;28;20037;-62
2022/12/15 09:27:42;;;;;;;20.80;10.60;;;-2.30;99.90;;;;;;5062136;28;20124;-62
2022/12/15 09:30:08;;;;;;;21.67;11.10;;;-2.20;99.90;;;;;;5056067;28;20075;-61
2022/12/15 09:32:34;;;;;;;21.20;11.32;;;-2.20;99.90;;;;;;5050451;28;20036;-61
2022/12/15 09:34:59;;;;;;;22.63;11.55;;;-2.10;99.90;;;;;;5056983;28;20495;-60
2022/12/15 09:37:25;;;;;;;23.75;11.93;;;-2.10;99.90;;;;;;5053744;28;20045;-61
2022/12/15 09:39:51;;;;;;;21.98;11.70;;;-1.90;99.90;;;;;;5055888;28;20119;-60
2022/12/15 09:42:26;;;;;;;22.35;12.02;;;-1.90;99.90;;;;;;5056996;28;20106;-61
2022/12/15 09:45:07;;;;;;;23.63;11.65;;;-1.80;99.90;;;;;;5056616;28;20032;-61
2022/12/15 09:47:44;;;;;;;22.77;12.23;;;-1.70;99.90;;;;;;5055999;28;20037;-60
2022/12/15 09:50:12;;;;;;;28.63;12.70;;;-1.60;99.90;;;;;;5055872;28;20503;-61
2022/12/15 09:52:43;;;;;;;25.75;12.55;;;-1.50;99.90;;;;;;5060372;28;20462;-61
2022/12/15 09:55:30;;;;;;;21.33;12.15;;;-1.50;99.90;;;;;;5069316;28;20119;-62
2022/12/15 09:58:05;;;;;;;24.92;11.07;;;-1.40;99.90;;;;;;5060620;28;20472;-62
2022/12/15 10:00:54;;;;;;;22.08;11.80;;;-1.30;99.90;;;;;;5070246;28;20522;-61
2022/12/15 10:03:50;;;;;;;23.08;12.70;;;-1.30;99.90;;;;;;5064993;28;20036;-61
2022/12/15 10:06:24;;;;;;;25.58;11.80;;;-1.20;99.90;;;;;;5065048;28;20395;-61
2022/12/15 10:08:59;;;;;;;27.00;12.05;;;-1.10;99.90;;;;;;5064801;28;20064;-61
2022/12/15 10:12:02;;;;;;;25.77;12.20;;;-1.10;99.90;;;;;;5070217;28;20036;-61
2022/12/15 10:14:42;;;;;;;26.80;12.00;;;-1.00;99.90;;;;;;5039381;28;20545;-61
2022/12/15 10:17:14;;;;;;;20.92;11.57;;;-1.00;99.90;;;;;;5069214;28;20037;-61
2022/12/15 10:19:48;;;;;;;24.08;11.98;;;-1.00;99.90;;;;;;5069936;28;20063;-61
2022/12/15 10:22:21;;;;;;;20.48;11.07;;;-1.00;99.90;;;;;;5063451;28;20037;-61
2022/12/15 10:24:47;;;;;;;19.70;11.68;;;-1.00;99.90;;;;;;5058938;28;20036;-60
2022/12/15 10:27:16;;;;;;;21.80;11.77;;;-1.00;99.90;;;;;;5069126;28;20376;-61
2022/12/15 10:29:49;;;;;;;21.15;11.68;;;-0.90;99.90;;;;;;5063593;28;20090;-61
2022/12/15 10:32:24;;;;;;;22.33;11.77;;;-0.90;99.90;;;;;;5065232;28;20060;-61
2022/12/15 10:34:50;;;;;;;21.33;11.55;;;-0.80;99.90;;;;;;5070238;28;20037;-61
2022/12/15 10:37:18;;;;;;;23.00;11.70;;;-0.70;99.90;;;;;;5069576;28;20380;-61
2022/12/15 10:39:46;;;;;;;21.55;11.38;;;-0.70;99.90;;;;;;5064623;28;20082;-61
2022/12/15 10:42:22;;;;;;;23.13;11.40;;;-0.60;99.90;;;;;;5055352;28;20376;-61
2022/12/15 10:44:51;;;;;;;24.00;12.05;;;-0.60;99.90;;;;;;5063607;28;20033;-59
2022/12/15 10:47:26;;;;;;;21.35;11.88;;;-0.50;99.90;;;;;;5061523;28;20045;-61
2022/12/15 10:49:53;;;;;;;23.08;11.77;;;-0.50;99.90;;;;;;5068691;28;20036;-59
2022/12/15 10:52:33;;;;;;;26.27;12.05;;;-0.40;99.90;;;;;;5069707;28;20521;-59
2022/12/15 10:54:58;;;;;;;23.10;11.85;;;-0.40;99.90;;;;;;5066826;28;20091;-61
2022/12/15 10:57:29;;;;;;;27.50;12.30;;;-0.30;99.90;;;;;;5064353;28;20079;-62
2022/12/15 11:00:05;;;;;;;24.73;11.95;;;-0.30;99.90;;;;;;5059822;28;20064;-61
2022/12/15 11:02:32;;;;;;;24.58;12.13;;;-0.20;99.90;;;;;;5065007;28;20044;-61
2022/12/15 11:04:58;;;;;;;24.58;11.38;;;-0.10;99.90;;;;;;5061831;28;20040;-62
2022/12/15 11:07:33;;;;;;;19.95;11.20;;;-0.10;99.90;;;;;;5067546;28;20048;-62
2022/12/15 11:10:00;;;;;;;25.00;12.13;;;0.00;99.90;;;;;;5062643;28;20075;-61
2022/12/15 11:15:20;;;;;;;21.42;11.50;;;0.20;99.90;;;;;;5060587;28;20123;-61
2022/12/15 11:18:10;;;;;;;19.50;11.30;;;0.30;99.90;;;;;;5066677;28;20068;-61
2022/12/15 11:20:49;;;;;;;20.58;11.27;;;0.40;99.90;;;;;;5065330;28;20684;-62
2022/12/15 11:23:59;;;;;;;21.45;11.30;;;0.50;99.90;;;;;;5054210;28;20048;-61
2022/12/15 11:26:59;;;;;;;22.33;11.43;;;0.50;99.90;;;;;;5063632;28;20119;-62
2022/12/15 11:29:50;;;;;;;21.05;10.60;;;0.50;99.90;;;;;;5063303;28;20544;-62
2022/12/15 11:32:22;;;;;;;20.48;11.00;;;0.60;99.90;;;;;;5069245;28;20036;-62
2022/12/15 11:34:48;;;;;;;20.88;11.63;;;0.60;99.90;;;;;;5061628;28;20331;-62
2022/12/15 11:37:39;;;;;;;20.33;11.82;;;0.60;99.90;;;;;;5061294;28;20094;-62
2022/12/15 11:40:40;;;;;;;22.08;12.02;;;0.60;99.90;;;;;;5069672;28;20171;-62
2022/12/15 11:43:11;;;;;;;20.88;11.98;;;0.70;99.90;;;;;;5068687;28;20082;-61
2022/12/15 11:45:58;;;;;;;25.00;12.37;;;0.70;99.90;;;;;;5058977;28;20043;-61
2022/12/15 11:48:53;;;;;;;23.05;12.23;;;0.70;99.90;;;;;;5068843;28;20032;-60
2022/12/15 11:51:47;;;;;;;21.50;12.35;;;0.80;99.90;;;;;;5061032;28;20059;-62
2022/12/15 11:54:24;;;;;;;22.38;12.35;;;0.80;99.90;;;;;;5064442;28;20060;-60
2022/12/15 11:56:58;;;;;;;20.48;12.10;;;0.90;99.90;;;;;;5062865;28;20135;-61
2022/12/15 11:59:44;;;;;;;21.77;12.10;;;1.00;99.90;;;;;;5064041;28;20037;-61
2022/12/15 12:02:28;;;;;;;20.77;11.82;;;1.10;99.90;;;;;;5061806;28;20411;-61
2022/12/15 12:05:13;;;;;;;20.15;11.35;;;1.10;99.90;;;;;;5059295;28;20032;-61
2022/12/15 12:07:49;;;;;;;19.65;12.25;;;1.10;99.90;;;;;;5057935;28;20055;-62
2022/12/15 12:10:45;;;;;;;21.70;11.93;;;1.00;99.90;;;;;;5055294;28;20444;-61
2022/12/15 12:13:27;;;;;;;21.60;11.52;;;1.10;99.90;;;;;;5055019;28;20041;-62
2022/12/15 12:16:05;;;;;;;20.58;12.13;;;1.10;99.90;;;;;;5058767;28;20079;-61
2022/12/15 12:18:52;;;;;;;22.90;12.32;;;1.10;99.90;;;;;;5067154;28;20052;-61
2022/12/15 12:21:28;;;;;;;22.42;12.63;;;1.10;99.90;;;;;;5071198;28;20089;-61
2022/12/15 12:24:12;;;;;;;23.92;12.48;;;1.20;99.90;;;;;;5070577;28;20043;-61
2022/12/15 12:26:44;;;;;;;24.65;11.82;;;1.30;99.90;;;;;;5072086;28;20036;-60
2022/12/15 12:29:31;;;;;;;19.27;11.80;;;1.70;99.90;;;;;;5050765;28;20045;-61
2022/12/15 12:32:11;;;;;;;20.23;11.43;;;2.20;99.90;;;;;;5069861;28;20044;-59
2022/12/15 12:35:14;;;;;;;23.05;11.73;;;2.50;99.90;;;;;;5072067;28;20115;-61
2022/12/15 12:37:58;;;;;;;;;;;2.70;99.90;;;;;;5068227;28;20494;-61
2022/12/15 12:40:40;;;;;;;23.27;11.85;;;3.00;99.90;;;;;;5070179;28;20015;-62
2022/12/15 12:43:08;;;;;;;24.00;11.13;;;3.00;99.90;;;;;;5071916;28;20036;-61
2022/12/15 12:45:37;;;;;;;21.70;12.30;;;2.80;99.90;;;;;;5071493;28;20036;-58
2022/12/15 12:48:13;;;;;;;22.30;12.27;;;2.90;99.90;;;;;;5071898;28;20037;-59
2022/12/15 12:50:39;;;;;;;20.38;11.43;;;3.30;99.90;;;;;;5068569;28;20044;-59
2022/12/15 12:53:05;;;;;;;18.65;11.32;;;3.60;99.90;;;;;;5070992;28;20098;-59
2022/12/15 12:55:40;;;;;;;21.35;11.85;;;3.70;99.90;;;;;;5071735;28;20090;-60
2022/12/15 12:58:44;;;;;;;22.38;12.10;;;3.80;99.90;;;;;;5062719;28;20045;-58
2022/12/15 13:01:09;;;;;;;22.67;12.82;;;3.90;99.90;;;;;;5069782;28;20040;-59
2022/12/15 13:03:40;;;;;;;23.30;12.20;;;4.10;99.90;;;;;;5070587;28;20047;-59
2022/12/15 13:06:34;;;;;;;17.00;10.65;;;4.20;99.90;;;;;;5067544;28;20040;-61
2022/12/15 13:09:23;;;;;;;20.23;11.90;;;4.30;99.90;;;;;;5070679;28;20040;-60
2022/12/15 13:11:51;;;;;;;22.58;11.73;;;4.50;99.90;;;;;;5071015;28;20052;-60
2022/12/15 13:14:37;;;;;;;25.17;11.65;;;4.70;99.90;;;;;;5070832;28;20048;-60
2022/12/15 13:17:11;;;;;;;34.90;12.00;;;4.60;99.90;;;;;;5071224;28;20415;-61
2022/12/15 13:19:55;;;;;;;25.00;11.85;;;4.50;99.90;;;;;;5070131;28;20045;-61
2022/12/15 13:22:30;;;;;;;27.08;13.45;;;4.60;99.90;;;;;;5070514;28;20131;-61
2022/12/15 13:24:56;;;;;;;21.38;13.13;;;4.50;99.90;;;;;;5071117;28;20044;-61
2022/12/15 13:27:22;;;;;;;25.35;13.23;;;4.30;99.90;;;;;;5070486;28;20499;-61
2022/12/15 13:29:56;;;;;;;21.13;12.57;;;4.00;99.90;;;;;;5070905;28;20051;-61
2022/12/15 13:32:34;;;;;;;24.50;13.15;;;3.50;99.90;;;;;;5061064;28;20055;-60
2022/12/15 13:35:13;;;;;;;21.55;13.07;;;3.20;99.90;;;;;;5070444;28;20041;-61
2022/12/15 13:38:01;;;;;;;23.10;12.52;;;2.90;99.90;;;;;;5066872;28;20086;-60
2022/12/15 13:40:33;;;;;;;23.45;12.80;;;3.00;99.90;;;;;;5062142;28;20099;-60
2022/12/15 13:43:05;;;;;;;18.38;11.60;;;3.10;99.90;;;;;;5068892;28;20441;-61
2022/12/15 13:45:42;;;;;;;22.48;11.85;;;3.10;99.90;;;;;;5068623;28;20051;-60
2022/12/15 13:48:24;;;;;;;26.05;13.15;;;3.00;99.90;;;;;;5059126;28;20563;-60
2022/12/15 13:51:18;;;;;;;22.77;12.70;;;3.00;99.90;;;;;;5069146;28;20040;-60
2022/12/15 13:54:21;;;;;;;22.02;11.45;;;3.30;99.90;;;;;;5061439;28;20052;-61
2022/12/15 13:56:53;;;;;;;25.95;12.55;;;3.60;99.90;;;;;;5030729;28;20041;-60
2022/12/15 13:59:41;;;;;;;26.97;12.23;;;3.50;99.90;;;;;;5056520;28;20122;-60
2022/12/15 14:02:27;;;;;;;35.13;13.07;;;3.20;99.90;;;;;;5069467;28;20271;-60
2022/12/15 14:05:14;;;;;;;38.55;13.18;;;2.90;99.90;;;;;;5064840;28;20455;-59
2022/12/15 14:07:54;;;;;;;37.90;13.32;;;2.70;99.90;;;;;;5070367;28;20229;-61
2022/12/15 14:10:22;;;;;;;22.38;12.98;;;2.60;99.90;;;;;;5065469;28;20413;-60
2022/12/15 14:12:50;;;;;;;21.88;13.13;;;2.40;99.90;;;;;;5066097;28;20072;-61
2022/12/15 14:15:18;;;;;;;23.88;13.55;;;2.20;99.90;;;;;;5063730;28;20071;-61
2022/12/15 14:17:49;;;;;;;24.98;13.50;;;2.10;99.90;;;;;;5069549;28;20044;-61
2022/12/15 14:20:20;;;;;;;24.25;13.27;;;2.00;99.90;;;;;;5054389;28;20120;-61
2022/12/15 14:22:46;;;;;;;20.48;13.40;;;2.00;99.90;;;;;;5068829;28;20548;-61
2022/12/15 14:25:22;;;;;;;25.88;14.13;;;1.90;99.90;;;;;;5064962;28;20040;-61
2022/12/15 14:27:50;;;;;;;41.70;15.65;;;1.80;99.90;;;;;;5061082;28;20068;-60
2022/12/15 14:30:31;;;;;;;25.50;12.95;;;1.80;99.90;;;;;;5070016;28;20052;-61
2022/12/15 14:33:05;;;;;;;23.42;14.38;;;1.70;99.90;;;;;;5061918;28;20526;-60
2022/12/15 14:35:44;;;;;;;29.13;14.23;;;1.70;99.90;;;;;;5066718;28;20086;-60
2022/12/15 14:38:18;;;;;;;27.73;14.45;;;1.70;99.90;;;;;;5082895;28;20044;-61
2022/12/15 14:40:47;;;;;;;23.90;14.52;;;1.60;99.90;;;;;;5069910;28;20053;-59
2022/12/15 14:43:25;;;;;;;27.02;15.48;;;1.60;99.90;;;;;;5064863;28;20437;-61
2022/12/15 14:46:24;;;;;;;29.58;14.48;;;1.50;99.90;;;;;;5065841;28;20371;-61
2022/12/15 14:48:58;;;;;;;23.20;14.68;;;1.50;99.90;;;;;;5046566;28;20045;-60
2022/12/15 14:51:26;;;;;;;27.77;15.15;;;1.40;99.90;;;;;;5068020;28;20411;-60
2022/12/15 14:53:53;;;;;;;28.70;14.32;;;1.40;99.90;;;;;;5069395;28;20483;-59
2022/12/15 14:56:18;;;;;;;27.27;15.63;;;1.30;99.90;;;;;;5066802;28;20072;-61
2022/12/15 14:59:02;;;;;;;26.55;16.58;;;1.30;99.90;;;;;;5068531;28;20494;-60
2022/12/15 15:01:39;;;;;;;27.77;16.48;;;1.30;99.90;;;;;;5066870;28;20033;-60
2022/12/15 15:04:24;;;;;;;31.10;16.40;;;1.20;99.90;;;;;;5065327;28;20059;-60
2022/12/15 15:07:05;;;;;;;29.73;17.10;;;1.20;99.90;;;;;;5068870;28;20517;-61
2022/12/15 15:09:42;;;;;;;29.33;17.10;;;1.10;99.90;;;;;;5063964;28;20092;-61
2022/12/15 15:12:54;;;;;;;26.48;17.05;;;1.00;99.90;;;;;;5055897;28;20499;-61
2022/12/15 15:15:24;;;;;;;30.30;17.98;;;1.00;99.90;;;;;;5057504;28;20098;-60
2022/12/15 15:17:58;;;;;;;29.70;16.83;;;1.00;99.90;;;;;;5072541;28;20093;-61
2022/12/15 15:20:26;;;;;;;30.42;18.33;;;0.90;99.90;;;;;;5063447;28;20097;-61
2022/12/15 15:23:11;;;;;;;31.90;18.73;;;0.90;99.90;;;;;;5070466;28;20506;-61